Time;durP1;ratioP1;P1;durP2;ratioP2;P2;SDS_P1;SDS_P2;PMS_P1;PMS_P2;Temp;Humidity;BMP_temperature;BMP_pressure;BME280_temperature;BME280_humidity;BME280_pressure;Samples;Min_cycle;Max_cycle;Signal;HPM_P1;HPM_P2
2023/03/30 00:00:41;;;;;;;;;;;13.40;79.60;;;;;;5074317;28;20387;-42
2023/03/30 00:03:08;;;;;;;;;;;13.40;79.60;;;;;;5074200;28;20372;-39
2023/03/30 00:05:33;;;;;;;;;;;13.40;79.60;;;;;;5074091;28;20380;-41
2023/03/30 00:07:59;;;;;;;;;;;13.40;79.50;;;;;;5074025;28;19912;-41
2023/03/30 00:10:26;;;;;;;;;;;13.50;79.40;;;;;;5074006;28;19912;-39
2023/03/30 00:12:51;;;;;;;;;;;13.50;79.30;;;;;;5074044;28;20334;-46
2023/03/30 00:15:18;;;;;;;;;;;13.50;79.30;;;;;;5074242;28;19916;-39
2023/03/30 00:17:44;;;;;;;;;;;13.50;79.20;;;;;;5074085;28;19947;-39
2023/03/30 00:20:10;;;;;;;;;;;13.50;79.20;;;;;;5073868;28;19959;-37
2023/03/30 00:22:37;;;;;;;;;;;13.50;79.00;;;;;;5073729;28;19920;-45
2023/03/30 00:25:03;;;;;;;;;;;13.50;79.00;;;;;;5073967;28;19916;-38
2023/03/30 00:27:29;;;;;;;;;;;13.60;79.00;;;;;;5073614;28;19951;-41
2023/03/30 00:29:54;;;;;;;;;;;13.60;78.90;;;;;;5074117;28;20313;-40
2023/03/30 00:32:20;;;;;;;;;;;13.60;78.80;;;;;;5073624;28;19912;-40
2023/03/30 00:34:45;;;;;;;;;;;13.60;78.80;;;;;;5072743;28;19912;-40
2023/03/30 00:37:11;;;;;;;;;;;13.60;78.80;;;;;;5073353;28;19959;-41
2023/03/30 00:39:37;;;;;;;;;;;13.60;78.80;;;;;;5072156;28;19996;-41
2023/03/30 00:42:02;;;;;;;;;;;13.50;78.80;;;;;;5073657;28;19912;-40
2023/03/30 00:44:46;;;;;;;;;;;13.50;78.80;;;;;;5073199;28;19920;-42
2023/03/30 00:47:12;;;;;;;;;;;13.50;78.60;;;;;;5072832;28;19913;-39
2023/03/30 00:49:38;;;;;;;;;;;13.50;78.60;;;;;;5071766;28;19919;-39
2023/03/30 00:52:03;;;;;;;;;;;13.50;78.50;;;;;;5073088;28;19924;-39
2023/03/30 00:54:29;;;;;;;;;;;13.60;78.40;;;;;;5073292;28;19916;-44
2023/03/30 00:56:55;;;;;;;;;;;13.60;78.50;;;;;;5073108;28;19948;-44
2023/03/30 00:59:20;;;;;;;;;;;13.60;78.40;;;;;;5072849;28;19912;-39
2023/03/30 01:01:49;;;;;;;;;;;13.60;78.40;;;;;;5073074;28;19920;-37
2023/03/30 01:04:15;;;;;;;;;;;13.50;78.20;;;;;;5072938;28;19916;-38
2023/03/30 01:06:44;;;;;;;;;;;13.60;78.20;;;;;;5073196;28;19916;-40
2023/03/30 01:09:10;;;;;;;;;;;13.60;78.20;;;;;;5073154;28;19913;-40
2023/03/30 01:11:36;;;;;;;;;;;13.60;78.10;;;;;;5073040;28;20323;-39
2023/03/30 01:14:03;;;;;;;;;;;13.60;78.10;;;;;;5072880;28;19913;-41
2023/03/30 01:16:42;;;;;;;;;;;13.60;78.10;;;;;;5072627;28;19951;-41
2023/03/30 01:19:20;;;;;;;;;;;13.60;78.00;;;;;;5072503;28;19955;-39
2023/03/30 01:21:47;;;;;;;;;;;13.60;78.00;;;;;;5072655;28;19921;-40
2023/03/30 01:24:31;;;;;;;;;;;13.60;78.10;;;;;;5072348;28;19943;-42
2023/03/30 01:26:58;;;;;;;;;;;13.60;78.10;;;;;;5072500;28;19912;-40
2023/03/30 01:29:42;;;;;;;;;;;13.60;78.10;;;;;;5072545;28;19913;-41
2023/03/30 01:32:14;;;;;;;;;;;13.60;78.10;;;;;;5072348;28;19917;-39
2023/03/30 01:34:42;;;;;;;;;;;13.60;78.10;;;;;;5072675;28;19920;-42
2023/03/30 01:37:34;;;;;;;;;;;13.60;78.10;;;;;;5072535;28;20367;-41
2023/03/30 01:40:08;;;;;;;;;;;13.60;78.10;;;;;;5071903;28;19913;-42
2023/03/30 01:42:37;;;;;;;;;;;13.50;78.00;;;;;;5072411;28;19932;-40
2023/03/30 01:45:09;;;;;;;;;;;13.60;78.10;;;;;;5071962;28;19917;-40
2023/03/30 01:47:48;;;;;;;;;;;13.60;78.10;;;;;;5072327;28;19912;-39
2023/03/30 01:50:37;;;;;;;;;;;13.60;78.00;;;;;;5072252;28;19920;-40
2023/03/30 01:53:25;;;;;;;;;;;13.60;77.90;;;;;;5067862;28;19997;-41
2023/03/30 01:55:58;;;;;;;;;;;13.70;77.80;;;;;;5072111;28;19918;-40
2023/03/30 01:58:31;;;;;;;;;;;13.70;77.80;;;;;;5072212;28;20264;-40
2023/03/30 02:00:58;;;;;;;;;;;13.70;77.80;;;;;;5072447;28;19942;-41
2023/03/30 02:03:27;;;;;;;;;;;13.70;77.70;;;;;;5072051;28;20594;-40
2023/03/30 02:05:55;;;;;;;;;;;13.70;77.70;;;;;;5072046;28;20392;-38
2023/03/30 02:08:22;;;;;;;;;;;13.70;77.70;;;;;;5072198;28;19948;-41
2023/03/30 02:10:48;;;;;;;;;;;13.60;77.70;;;;;;5071906;28;19919;-39
2023/03/30 02:13:15;;;;;;;;;;;13.60;77.70;;;;;;5072025;28;20003;-44
2023/03/30 02:15:43;;;;;;;;;;;13.60;77.80;;;;;;5072271;28;19998;-41
2023/03/30 02:18:08;;;;;;;;;;;13.60;77.80;;;;;;5071934;28;19918;-39
2023/03/30 02:20:34;;;;;;;;;;;13.60;77.80;;;;;;5071802;28;19912;-40
2023/03/30 02:23:00;;;;;;;;;;;13.60;77.80;;;;;;5071442;28;19927;-41
2023/03/30 02:25:26;;;;;;;;;;;13.60;77.80;;;;;;5071524;28;20006;-50
2023/03/30 02:27:52;;;;;;;;;;;13.60;77.70;;;;;;5071762;28;19950;-41
2023/03/30 02:30:18;;;;;;;;;;;13.60;77.70;;;;;;5071832;28;19913;-47
2023/03/30 02:32:48;;;;;;;;;;;13.60;77.60;;;;;;5071820;28;19923;-41
2023/03/30 02:35:17;;;;;;;;;;;13.60;77.60;;;;;;5071855;28;20367;-38
2023/03/30 02:37:55;;;;;;;;;;;13.50;77.70;;;;;;5071839;28;19909;-38
2023/03/30 02:40:27;;;;;;;;;;;13.40;77.70;;;;;;5071852;28;20003;-39
2023/03/30 02:43:10;;;;;;;;;;;13.40;77.70;;;;;;5071834;28;20376;-41
2023/03/30 02:45:50;;;;;;;;;;;13.40;77.80;;;;;;5071840;28;19962;-39
2023/03/30 02:48:27;;;;;;;;;;;13.30;77.80;;;;;;5071468;28;19916;-41
2023/03/30 02:50:59;;;;;;;;;;;13.30;77.80;;;;;;5071631;28;19916;-39
2023/03/30 02:53:31;;;;;;;;;;;13.30;77.70;;;;;;5070189;28;19931;-42
2023/03/30 02:56:02;;;;;;;;;;;13.40;77.70;;;;;;5071362;28;19908;-41
2023/03/30 02:58:50;;;;;;;;;;;13.40;77.50;;;;;;5075077;28;19926;-46
2023/03/30 03:01:22;;;;;;;;;;;13.50;77.40;;;;;;5075526;28;19948;-38
2023/03/30 03:03:48;;;;;;;;;;;13.50;77.30;;;;;;5075104;28;19916;-39
2023/03/30 03:06:14;;;;;;;;;;;13.50;77.20;;;;;;5075128;28;20410;-41
2023/03/30 03:08:41;;;;;;;;;;;13.60;77.20;;;;;;5074815;28;19909;-40
2023/03/30 03:11:06;;;;;;;;;;;13.60;77.10;;;;;;5074899;28;20003;-38
2023/03/30 03:13:35;;;;;;;;;;;13.60;77.10;;;;;;5075076;28;19951;-40
2023/03/30 03:16:02;;;;;;;;;;;13.70;77.10;;;;;;5074944;28;20003;-39
2023/03/30 03:18:27;;;;;;;;;;;13.70;77.10;;;;;;5075208;28;20003;-38
2023/03/30 03:20:52;;;;;;;;;;;13.70;77.00;;;;;;5074931;28;19993;-43
2023/03/30 03:23:18;;;;;;;;;;;13.70;77.00;;;;;;5074832;28;19920;-40
2023/03/30 03:25:43;;;;;;;;;;;13.70;76.90;;;;;;5074821;28;20546;-39
2023/03/30 03:28:09;;;;;;;;;;;13.80;77.00;;;;;;5075089;28;19909;-39
2023/03/30 03:30:34;;;;;;;;;;;13.80;77.00;;;;;;5074761;28;19944;-39
2023/03/30 03:33:00;;;;;;;;;;;13.80;77.00;;;;;;5074797;28;19915;-42
2023/03/30 03:35:26;;;;;;;;;;;13.80;77.10;;;;;;5074906;28;19923;-40
2023/03/30 03:37:51;;;;;;;;;;;13.80;77.10;;;;;;5074679;28;19909;-41
2023/03/30 03:40:17;;;;;;;;;;;13.70;77.00;;;;;;5074454;28;19999;-42
2023/03/30 03:42:42;;;;;;;;;;;13.70;77.10;;;;;;5074485;28;19908;-40
2023/03/30 03:45:08;;;;;;;;;;;13.70;77.20;;;;;;5074791;28;19939;-40
2023/03/30 03:47:34;;;;;;;;;;;13.70;77.30;;;;;;5074497;28;19909;-40
2023/03/30 03:50:05;;;;;;;;;;;13.70;77.30;;;;;;5074463;28;19908;-42
2023/03/30 03:52:31;;;;;;;;;;;13.60;77.30;;;;;;5074776;28;20360;-42
2023/03/30 03:54:56;;;;;;;;;;;13.60;77.40;;;;;;5074597;28;19947;-38
2023/03/30 03:57:25;;;;;;;;;;;13.50;77.50;;;;;;5074249;28;19909;-40
2023/03/30 03:59:51;;;;;;;;;;;13.50;77.50;;;;;;5074140;28;19909;-41
2023/03/30 04:02:17;;;;;;;;;;;13.40;77.60;;;;;;5074392;28;19954;-40
2023/03/30 04:04:43;;;;;;;;;;;13.40;77.60;;;;;;5074182;28;19917;-41
2023/03/30 04:07:08;;;;;;;;;;;13.40;77.70;;;;;;5073867;28;19913;-39
2023/03/30 04:09:34;;;;;;;;;;;13.40;77.70;;;;;;5074143;28;20039;-43
2023/03/30 04:11:59;;;;;;;;;;;13.40;77.70;;;;;;5074105;28;19916;-42
2023/03/30 04:14:25;;;;;;;;;;;13.50;77.70;;;;;;5074134;28;19915;-44
2023/03/30 04:16:50;;;;;;;;;;;13.50;77.70;;;;;;5074230;28;19916;-41
2023/03/30 04:19:16;;;;;;;;;;;13.50;77.70;;;;;;5073912;28;19978;-44
2023/03/30 04:21:45;;;;;;;;;;;13.60;77.80;;;;;;5074315;28;19915;-41
2023/03/30 04:24:12;;;;;;;;;;;13.60;77.80;;;;;;5073575;28;20023;-40
2023/03/30 04:26:37;;;;;;;;;;;13.60;77.80;;;;;;5073825;28;19908;-41
2023/03/30 04:29:05;;;;;;;;;;;13.70;77.80;;;;;;5073705;28;20427;-40
2023/03/30 04:31:33;;;;;;;;;;;13.60;77.90;;;;;;5073789;28;19909;-41
2023/03/30 04:34:01;;;;;;;;;;;13.70;78.00;;;;;;5073631;28;20004;-39
2023/03/30 04:36:27;;;;;;;;;;;13.70;78.10;;;;;;5073771;28;20372;-40
2023/03/30 04:38:59;;;;;;;;;;;13.70;78.00;;;;;;5073494;28;19908;-41
2023/03/30 04:41:28;;;;;;;;;;;13.70;78.10;;;;;;5073632;28;20008;-38
2023/03/30 04:43:54;;;;;;;;;;;13.70;78.10;;;;;;5073617;28;19916;-39
2023/03/30 04:46:20;;;;;;;;;;;13.70;78.50;;;;;;5072031;28;19922;-39
2023/03/30 04:48:45;;;;;;;;;;;13.70;78.60;;;;;;5073609;28;19913;-39
2023/03/30 04:51:11;;;;;;;;;;;13.70;78.60;;;;;;5073228;28;20003;-40
2023/03/30 04:53:36;;;;;;;;;;;13.70;78.60;;;;;;5073354;28;20375;-47
2023/03/30 04:56:02;;;;;;;;;;;13.70;78.60;;;;;;5072981;28;19908;-39
2023/03/30 04:58:27;;;;;;;;;;;13.70;78.60;;;;;;5072981;28;19913;-41
2023/03/30 05:00:54;;;;;;;;;;;13.70;78.60;;;;;;5073251;28;19908;-41
2023/03/30 05:03:19;;;;;;;;;;;13.70;78.70;;;;;;5072914;28;19908;-42
2023/03/30 05:05:45;;;;;;;;;;;13.70;78.80;;;;;;5072873;28;20340;-43
2023/03/30 05:08:10;;;;;;;;;;;13.70;79.10;;;;;;5072787;28;19908;-40
2023/03/30 05:10:36;;;;;;;;;;;13.70;79.30;;;;;;5072766;28;19908;-39
2023/03/30 05:13:01;;;;;;;;;;;13.60;81.10;;;;;;5072992;28;19909;-42
2023/03/30 05:15:27;;;;;;;;;;;13.40;81.00;;;;;;5072713;28;20343;-40
2023/03/30 05:17:52;;;;;;;;;;;13.30;81.80;;;;;;5072623;28;19923;-39
2023/03/30 05:20:19;;;;;;;;;;;13.10;82.40;;;;;;5072125;28;19969;-38
2023/03/30 05:22:45;;;;;;;;;;;13.10;82.70;;;;;;5072449;28;20358;-39
2023/03/30 05:25:11;;;;;;;;;;;13.00;82.80;;;;;;5072911;28;19919;-37
2023/03/30 05:27:37;;;;;;;;;;;12.90;83.20;;;;;;5072799;28;19908;-37
2023/03/30 05:30:02;;;;;;;;;;;12.90;83.10;;;;;;5072637;28;19909;-46
2023/03/30 05:32:28;;;;;;;;;;;12.90;83.50;;;;;;5072695;28;19969;-43
2023/03/30 05:34:53;;;;;;;;;;;12.80;83.80;;;;;;5072440;28;19916;-48
2023/03/30 05:37:19;;;;;;;;;;;12.80;83.80;;;;;;5072289;28;19908;-36
2023/03/30 05:39:46;;;;;;;;;;;12.70;84.00;;;;;;5070985;28;19909;-39
2023/03/30 05:42:12;;;;;;;;;;;12.70;84.30;;;;;;5072534;28;19991;-37
2023/03/30 05:44:37;;;;;;;;;;;12.60;84.60;;;;;;5072037;28;20003;-36
2023/03/30 05:47:03;;;;;;;;;;;12.60;84.50;;;;;;5072413;28;20246;-39
2023/03/30 05:49:28;;;;;;;;;;;12.60;85.20;;;;;;5072157;28;19916;-41
2023/03/30 05:51:54;;;;;;;;;;;12.60;84.90;;;;;;5072142;28;20289;-37
2023/03/30 05:54:20;;;;;;;;;;;12.50;84.80;;;;;;5072259;28;19912;-35
2023/03/30 05:56:46;;;;;;;;;;;12.50;84.70;;;;;;5072430;28;19909;-36
2023/03/30 05:59:11;;;;;;;;;;;12.50;84.80;;;;;;5070546;28;19915;-36
2023/03/30 06:01:37;;;;;;;;;;;12.50;85.10;;;;;;5072320;28;19923;-44
2023/03/30 06:04:03;;;;;;;;;;;12.50;85.30;;;;;;5072082;28;20276;-36
2023/03/30 06:06:28;;;;;;;;;;;12.50;85.40;;;;;;5071713;28;20285;-36
2023/03/30 06:08:54;;;;;;;;;;;12.50;85.40;;;;;;5072222;28;19908;-38
2023/03/30 06:11:19;;;;;;;;;;;12.50;85.50;;;;;;5071730;28;19909;-36
2023/03/30 06:13:45;;;;;;;;;;;12.60;85.60;;;;;;5071976;28;19908;-40
2023/03/30 06:16:10;;;;;;;;;;;12.60;85.50;;;;;;5071649;28;20004;-36
2023/03/30 06:18:36;;;;;;;;;;;12.60;85.80;;;;;;5071807;28;19973;-35
2023/03/30 06:21:05;;;;;;;;;;;12.60;85.60;;;;;;5071825;28;20011;-37
2023/03/30 06:23:31;;;;;;;;;;;12.70;85.80;;;;;;5071593;28;19920;-39
2023/03/30 06:25:58;;;;;;;;;;;12.70;85.80;;;;;;5071903;28;20287;-34
2023/03/30 06:28:24;;;;;;;;;;;12.70;85.80;;;;;;5071620;28;19977;-37
2023/03/30 06:30:49;;;;;;;;;;;12.80;85.90;;;;;;5070614;28;19908;-36
2023/03/30 06:33:15;;;;;;;;;;;12.80;85.60;;;;;;5074177;28;19955;-49
2023/03/30 06:35:45;;;;;;;;;;;12.90;86.00;;;;;;5075135;28;20283;-37
2023/03/30 06:38:11;;;;;;;;;;;12.90;86.40;;;;;;5075460;28;19913;-35
2023/03/30 06:40:36;;;;;;;;;;;12.90;86.40;;;;;;5075634;28;19943;-37
2023/03/30 06:43:02;;;;;;;;;;;12.90;86.10;;;;;;5075814;28;20307;-36
2023/03/30 06:45:27;;;;;;;;;;;12.90;86.30;;;;;;5075358;28;19993;-38
2023/03/30 06:47:53;;;;;;;;;;;13.00;86.40;;;;;;5075579;28;19995;-38
2023/03/30 06:50:18;;;;;;;;;;;13.00;86.20;;;;;;5075292;28;19908;-34
2023/03/30 06:52:44;;;;;;;;;;;13.00;86.20;;;;;;5075860;28;19909;-38
2023/03/30 06:55:10;;;;;;;;;;;13.00;86.20;;;;;;5075302;28;19932;-36
2023/03/30 06:57:35;;;;;;;;;;;13.00;86.20;;;;;;5075658;28;19916;-35
2023/03/30 07:00:05;;;;;;;;;;;13.00;86.40;;;;;;5075482;28;20439;-35
2023/03/30 07:02:31;;;;;;;;;;;12.90;86.50;;;;;;5075426;28;19909;-41
2023/03/30 07:04:57;;;;;;;;;;;12.90;86.60;;;;;;5074943;28;19923;-36
2023/03/30 07:07:23;;;;;;;;;;;12.90;86.50;;;;;;5075318;28;20007;-39
2023/03/30 07:09:48;;;;;;;;;;;12.90;86.70;;;;;;5075271;28;19912;-39
2023/03/30 07:12:14;;;;;;;;;;;12.90;86.50;;;;;;5075212;28;19915;-37
2023/03/30 07:14:39;;;;;;;;;;;12.90;86.40;;;;;;5074876;28;20003;-37
2023/03/30 07:17:06;;;;;;;;;;;12.90;86.30;;;;;;5074833;28;19908;-39
2023/03/30 07:19:31;;;;;;;;;;;12.90;86.20;;;;;;5074994;28;19915;-36
2023/03/30 07:21:57;;;;;;;;;;;12.90;86.10;;;;;;5075072;28;20011;-36
2023/03/30 07:24:22;;;;;;;;;;;13.00;86.00;;;;;;5075058;28;19925;-41
2023/03/30 07:26:48;;;;;;;;;;;13.00;85.90;;;;;;5074825;28;20007;-36
2023/03/30 07:29:14;;;;;;;;;;;13.00;85.80;;;;;;5074763;28;19908;-38
2023/03/30 07:31:40;;;;;;;;;;;13.00;85.90;;;;;;5074665;28;19908;-42
2023/03/30 07:34:06;;;;;;;;;;;13.10;86.10;;;;;;5074898;28;19915;-37
2023/03/30 07:36:32;;;;;;;;;;;13.20;86.10;;;;;;5074758;28;19909;-36
2023/03/30 07:38:58;;;;;;;;;;;13.30;86.00;;;;;;5074681;28;20351;-36
2023/03/30 07:41:23;;;;;;;;;;;13.30;86.00;;;;;;5074829;28;19908;-45
2023/03/30 07:43:49;;;;;;;;;;;13.40;85.90;;;;;;5074184;28;20485;-37
2023/03/30 07:46:14;;;;;;;;;;;13.50;85.80;;;;;;5074879;28;19985;-44
2023/03/30 07:48:40;;;;;;;;;;;13.50;85.50;;;;;;5074627;28;20407;-36
2023/03/30 07:51:11;;;;;;;;;;;13.50;86.00;;;;;;5074970;28;19913;-39
2023/03/30 07:53:36;;;;;;;;;;;13.50;84.70;;;;;;5073181;28;19915;-37
2023/03/30 07:56:02;;;;;;;;;;;13.50;84.70;;;;;;5074566;28;20003;-36
2023/03/30 07:58:28;;;;;;;;;;;13.50;84.70;;;;;;5074479;28;19908;-37
2023/03/30 08:00:53;;;;;;;;;;;13.50;84.20;;;;;;5074157;28;19908;-36
2023/03/30 08:03:20;;;;;;;;;;;13.50;84.00;;;;;;5074102;28;19952;-41
2023/03/30 08:05:56;;;;;;;;;;;13.50;83.60;;;;;;5074132;28;20008;-38
2023/03/30 08:08:22;;;;;;;;;;;13.50;82.80;;;;;;5074356;28;19909;-38
2023/03/30 08:10:47;;;;;;;;;;;13.50;82.90;;;;;;5072773;28;19927;-36
2023/03/30 08:13:13;;;;;;;;;;;13.50;82.60;;;;;;5073995;28;19916;-37
2023/03/30 08:15:38;;;;;;;;;;;13.40;82.10;;;;;;5074166;28;19932;-36
2023/03/30 08:18:06;;;;;;;;;;;13.40;81.80;;;;;;5073795;28;19916;-43
2023/03/30 08:20:35;;;;;;;;;;;13.40;81.80;;;;;;5074237;28;19909;-37
2023/03/30 08:23:01;;;;;;;;;;;13.40;81.80;;;;;;5073971;28;19943;-35
2023/03/30 08:25:27;;;;;;;;;;;13.40;82.30;;;;;;5073762;28;19912;-37
2023/03/30 08:27:52;;;;;;;;;;;13.50;81.90;;;;;;5074097;28;19916;-35
2023/03/30 08:30:18;;;;;;;;;;;13.50;82.00;;;;;;5072792;28;20287;-36
2023/03/30 08:32:44;;;;;;;;;;;13.60;81.50;;;;;;5073715;28;19916;-36
2023/03/30 08:35:10;;;;;;;;;;;13.60;80.90;;;;;;5073904;28;19908;-36
2023/03/30 08:37:36;;;;;;;;;;;13.60;80.80;;;;;;5073934;28;19916;-39
2023/03/30 08:40:04;;;;;;;;;;;13.70;81.60;;;;;;5073633;28;20249;-35
2023/03/30 08:42:46;;;;;;;;;;;13.70;81.10;;;;;;5073623;28;19908;-36
2023/03/30 08:45:12;;;;;;;;;;;13.90;80.50;;;;;;5073322;28;19919;-37
2023/03/30 08:47:42;;;;;;;;;;;13.90;80.80;;;;;;5073399;28;19988;-40
2023/03/30 08:50:12;;;;;;;;;;;13.90;80.20;;;;;;5073322;28;19916;-41
2023/03/30 08:52:40;;;;;;;;;;;13.90;79.40;;;;;;5073487;28;19912;-43
2023/03/30 08:55:26;;;;;;;;;;;13.80;79.30;;;;;;5072163;28;19908;-41
2023/03/30 08:57:58;;;;;;;;;;;13.80;79.60;;;;;;5067716;28;19970;-46
2023/03/30 09:00:40;;;;;;;;;;;13.70;79.80;;;;;;5073388;28;19908;-39
2023/03/30 09:03:12;;;;;;;;;;;13.80;80.00;;;;;;5072952;28;19909;-52
2023/03/30 09:05:42;;;;;;;;;;;13.80;80.00;;;;;;5072888;28;19932;-43
2023/03/30 09:08:21;;;;;;;;;;;13.80;79.80;;;;;;5072852;28;19909;-39
2023/03/30 09:11:10;;;;;;;;;;;13.70;79.70;;;;;;5072760;28;19908;-38
2023/03/30 09:13:36;;;;;;;;;;;13.70;79.70;;;;;;5072818;28;19908;-37
2023/03/30 09:16:08;;;;;;;;;;;13.60;79.10;;;;;;5072946;28;19908;-43
2023/03/30 09:18:36;;;;;;;;;;;13.60;79.00;;;;;;5071454;28;19999;-44
2023/03/30 09:21:02;;;;;;;;;;;13.60;80.00;;;;;;5072668;28;19909;-35
2023/03/30 09:23:29;;;;;;;;;;;13.50;80.80;;;;;;5072625;28;19931;-39
2023/03/30 09:25:57;;;;;;;;;;;13.40;81.90;;;;;;5072620;28;20351;-37
2023/03/30 09:28:28;;;;;;;;;;;13.20;82.70;;;;;;5072675;28;20383;-36
2023/03/30 09:31:01;;;;;;;;;;;13.10;84.50;;;;;;5072451;28;19916;-40
2023/03/30 09:33:50;;;;;;;;;;;13.00;84.30;;;;;;5072508;28;20355;-39
2023/03/30 09:36:21;;;;;;;;;;;12.90;84.80;;;;;;5072535;28;19951;-38
2023/03/30 09:38:46;;;;;;;;;;;13.00;85.40;;;;;;5072480;28;19963;-37
2023/03/30 09:41:34;;;;;;;;;;;13.00;85.50;;;;;;5072619;28;20368;-40
2023/03/30 09:44:00;;;;;;;;;;;13.10;85.30;;;;;;5072143;28;19912;-42
2023/03/30 09:46:26;;;;;;;;;;;13.20;85.00;;;;;;5072741;28;19909;-40
2023/03/30 09:48:52;;;;;;;;;;;13.30;84.90;;;;;;5071036;28;20452;-37
2023/03/30 09:51:17;;;;;;;;;;;13.40;84.50;;;;;;5072268;28;20323;-37
2023/03/30 09:53:44;;;;;;;;;;;13.50;84.00;;;;;;5072200;28;19912;-36
2023/03/30 09:56:21;;;;;;;;;;;13.50;83.30;;;;;;5072043;28;19913;-37
2023/03/30 09:58:46;;;;;;;;;;;13.50;82.70;;;;;;5072467;28;20367;-39
2023/03/30 10:01:13;;;;;;;;;;;13.50;82.40;;;;;;5072160;28;19912;-39
2023/03/30 10:03:40;;;;;;;;;;;13.50;82.60;;;;;;5072233;28;19920;-36
2023/03/30 10:06:07;;;;;;;;;;;13.60;82.40;;;;;;5072188;28;19913;-39
2023/03/30 10:08:40;;;;;;;;;;;13.70;81.90;;;;;;5070800;28;19908;-36
2023/03/30 10:11:06;;;;;;;;;;;13.70;81.40;;;;;;5072213;28;19915;-37
2023/03/30 10:13:34;;;;;;;;;;;13.80;81.70;;;;;;5072391;28;19916;-39
2023/03/30 10:16:03;;;;;;;;;;;13.80;80.70;;;;;;5072179;28;19909;-42
2023/03/30 10:18:40;;;;;;;;;;;13.90;79.20;;;;;;5072494;28;19920;-37
2023/03/30 10:21:11;;;;;;;;;;;14.10;78.10;;;;;;5070674;28;19908;-39
2023/03/30 10:23:41;;;;;;;;;;;14.10;77.50;;;;;;5071966;28;19921;-40
2023/03/30 10:26:18;;;;;;;;;;;14.10;77.30;;;;;;5072283;28;19919;-39
2023/03/30 10:28:51;;;;;;;;;;;14.10;77.20;;;;;;5072214;28;20429;-37
2023/03/30 10:31:17;;;;;;;;;;;14.10;76.80;;;;;;5072435;28;19908;-39
2023/03/30 10:33:43;;;;;;;;;;;14.10;76.70;;;;;;5072199;28;19909;-47
2023/03/30 10:36:10;;;;;;;;;;;14.10;75.90;;;;;;5071443;28;19912;-37
2023/03/30 10:38:36;;;;;;;;;;;14.00;76.30;;;;;;5071779;28;19909;-38
2023/03/30 10:41:07;;;;;;;;;;;14.10;76.60;;;;;;5071645;28;19962;-38
2023/03/30 10:43:34;;;;;;;;;;;14.10;76.50;;;;;;5071822;28;19913;-39
2023/03/30 10:46:12;;;;;;;;;;;14.20;76.00;;;;;;5071809;28;20030;-52
2023/03/30 10:48:47;;;;;;;;;;;14.30;76.20;;;;;;5071907;28;19909;-43
2023/03/30 10:51:20;;;;;;;;;;;14.30;75.70;;;;;;5071749;28;20464;-50
2023/03/30 10:53:46;;;;;;;;;;;14.40;75.40;;;;;;5072009;28;19908;-44
2023/03/30 10:56:11;;;;;;;;;;;14.50;74.70;;;;;;5071534;28;19915;-37
2023/03/30 10:58:55;;;;;;;;;;;14.60;74.10;;;;;;5071715;28;20360;-39
2023/03/30 11:01:40;;;;;;;;;;;14.70;73.70;;;;;;5071547;28;19913;-37
2023/03/30 11:04:09;;;;;;;;;;;14.70;72.80;;;;;;5071690;28;20310;-39
2023/03/30 11:06:38;;;;;;;;;;;14.70;73.70;;;;;;5072050;28;19909;-38
2023/03/30 11:09:07;;;;;;;;;;;14.70;73.20;;;;;;5071433;28;20322;-38
2023/03/30 11:11:51;;;;;;;;;;;14.70;73.80;;;;;;5071803;28;19995;-38
2023/03/30 11:14:24;;;;;;;;;;;14.70;73.90;;;;;;5071636;28;19908;-41
2023/03/30 11:16:56;;;;;;;;;;;14.70;73.70;;;;;;5071796;28;19999;-37
2023/03/30 11:19:30;;;;;;;;;;;14.70;73.80;;;;;;5075163;28;19909;-39
2023/03/30 11:21:58;;;;;;;;;;;14.80;73.70;;;;;;5075285;28;19909;-38
2023/03/30 11:24:25;;;;;;;;;;;14.80;73.70;;;;;;5075211;28;19912;-39
2023/03/30 11:26:55;;;;;;;;;;;14.80;73.90;;;;;;5075055;28;19947;-36
2023/03/30 11:29:38;;;;;;;;;;;14.90;73.10;;;;;;5074843;28;19915;-38
2023/03/30 11:32:22;;;;;;;;;;;14.90;73.10;;;;;;5075009;28;20257;-42
2023/03/30 11:35:00;;;;;;;;;;;15.10;72.80;;;;;;5074932;28;20000;-40
2023/03/30 11:37:37;;;;;;;;;;;15.20;73.00;;;;;;5074668;28;19990;-39
2023/03/30 11:40:16;;;;;;;;;;;15.30;71.70;;;;;;5074589;28;19908;-38
2023/03/30 11:42:42;;;;;;;;;;;15.40;70.20;;;;;;5074588;28;19908;-38
2023/03/30 11:45:30;;;;;;;;;;;15.30;70.90;;;;;;5074904;28;19977;-39
2023/03/30 11:48:22;;;;;;;;;;;15.30;70.40;;;;;;5073927;28;20368;-40
2023/03/30 11:51:06;;;;;;;;;;;15.30;70.40;;;;;;5073739;28;19938;-40
2023/03/30 11:54:01;;;;;;;;;;;15.30;70.60;;;;;;5074411;28;19909;-40
2023/03/30 11:56:32;;;;;;;;;;;15.30;70.00;;;;;;5071917;28;20376;-40
2023/03/30 11:59:07;;;;;;;;;;;15.30;69.50;;;;;;5074390;28;20329;-38
2023/03/30 12:01:41;;;;;;;;;;;15.30;69.60;;;;;;5074491;28;19909;-37
2023/03/30 12:04:08;;;;;;;;;;;15.30;69.40;;;;;;5074049;28;20001;-38
2023/03/30 12:06:43;;;;;;;;;;;15.40;69.30;;;;;;5074306;28;20352;-43
2023/03/30 12:09:21;;;;;;;;;;;15.40;69.50;;;;;;5073959;28;19915;-38
2023/03/30 12:12:05;;;;;;;;;;;15.50;69.20;;;;;;5074039;28;19909;-40
2023/03/30 12:14:44;;;;;;;;;;;15.50;69.20;;;;;;5074270;28;19932;-36
2023/03/30 12:17:24;;;;;;;;;;;15.60;68.30;;;;;;5074080;28;20003;-40
2023/03/30 12:19:52;;;;;;;;;;;15.70;68.10;;;;;;5073908;28;19916;-40
2023/03/30 12:22:24;;;;;;;;;;;15.70;67.80;;;;;;5073976;28;19928;-40
2023/03/30 12:24:52;;;;;;;;;;;15.80;67.50;;;;;;5073631;28;19913;-36
2023/03/30 12:27:18;;;;;;;;;;;15.80;66.80;;;;;;5073947;28;20011;-42
2023/03/30 12:29:46;;;;;;;;;;;15.80;66.90;;;;;;5073642;28;19957;-47
2023/03/30 12:32:20;;;;;;;;;;;15.70;67.40;;;;;;5073818;28;19908;-42
2023/03/30 12:34:46;;;;;;;;;;;15.70;67.10;;;;;;5073444;28;19916;-46
2023/03/30 12:37:14;;;;;;;;;;;15.70;67.20;;;;;;5073443;28;19909;-36
2023/03/30 12:39:54;;;;;;;;;;;15.70;67.00;;;;;;5073447;28;19909;-40
2023/03/30 12:42:33;;;;;;;;;;;15.80;67.20;;;;;;5073492;28;19913;-38
2023/03/30 12:45:13;;;;;;;;;;;15.80;65.20;;;;;;5073677;28;20367;-39
2023/03/30 12:47:57;;;;;;;;;;;15.80;66.20;;;;;;5073413;28;19915;-38
2023/03/30 12:50:28;;;;;;;;;;;15.80;66.40;;;;;;5073341;28;19908;-38
2023/03/30 12:53:12;;;;;;;;;;;15.90;66.40;;;;;;5073499;28;19931;-38
2023/03/30 12:55:46;;;;;;;;;;;16.00;66.30;;;;;;5073296;28;19912;-41
2023/03/30 12:58:20;;;;;;;;;;;16.00;66.40;;;;;;5073186;28;19931;-40
2023/03/30 13:01:04;;;;;;;;;;;16.00;66.50;;;;;;5073275;28;19909;-48
2023/03/30 13:03:36;;;;;;;;;;;16.00;66.20;;;;;;5073135;28;20352;-37
2023/03/30 13:06:03;;;;;;;;;;;15.90;66.30;;;;;;5072842;28;19912;-39
2023/03/30 13:08:35;;;;;;;;;;;16.00;66.80;;;;;;5072798;28;20407;-38
2023/03/30 13:11:12;;;;;;;;;;;16.00;65.90;;;;;;5073305;28;20405;-38
2023/03/30 13:13:44;;;;;;;;;;;16.20;64.90;;;;;;5073398;28;20326;-40
2023/03/30 13:16:10;;;;;;;;;;;16.10;64.80;;;;;;5073142;28;19935;-40
2023/03/30 13:18:40;;;;;;;;;;;16.10;64.60;;;;;;5072792;28;20363;-39
2023/03/30 13:21:19;;;;;;;;;;;16.00;65.70;;;;;;5072884;28;19923;-40
2023/03/30 13:23:56;;;;;;;;;;;15.90;65.90;;;;;;5072599;28;20291;-39
2023/03/30 13:26:26;;;;;;;;;;;16.00;65.90;;;;;;5072890;28;19983;-39
2023/03/30 13:28:55;;;;;;;;;;;16.00;65.50;;;;;;5072059;28;20384;-37
2023/03/30 13:31:39;;;;;;;;;;;16.00;65.40;;;;;;5072722;28;20417;-39
2023/03/30 13:34:12;;;;;;;;;;;16.10;66.30;;;;;;5071218;28;19916;-49
2023/03/30 13:36:44;;;;;;;;;;;16.00;64.80;;;;;;5072358;28;19909;-40
2023/03/30 13:39:20;;;;;;;;;;;15.90;65.10;;;;;;5072591;28;19909;-38
2023/03/30 13:41:56;;;;;;;;;;;15.80;65.40;;;;;;5071511;28;19934;-40
2023/03/30 13:44:31;;;;;;;;;;;15.80;65.70;;;;;;5072137;28;19912;-38
2023/03/30 13:47:15;;;;;;;;;;;15.70;65.70;;;;;;5072771;28;19970;-41
2023/03/30 13:50:01;;;;;;;;;;;15.70;66.00;;;;;;5072031;28;19909;-39
2023/03/30 13:52:32;;;;;;;;;;;15.80;66.40;;;;;;5072109;28;19944;-41
2023/03/30 13:54:58;;;;;;;;;;;15.90;66.20;;;;;;5071968;28;19908;-40
2023/03/30 13:57:29;;;;;;;;;;;16.00;65.50;;;;;;5070639;28;19909;-39
2023/03/30 13:59:59;;;;;;;;;;;16.00;65.60;;;;;;5072573;28;20018;-42
2023/03/30 14:02:28;;;;;;;;;;;16.00;66.20;;;;;;5071988;28;20266;-39
2023/03/30 14:04:53;;;;;;;;;;;15.90;67.00;;;;;;5071858;28;19912;-39
2023/03/30 14:07:20;;;;;;;;;;;15.90;67.60;;;;;;5072262;28;19909;-41
2023/03/30 14:10:05;;;;;;;;;;;15.90;68.10;;;;;;5072119;28;19908;-41
2023/03/30 14:12:31;;;;;;;;;;;15.90;68.00;;;;;;5071775;28;19935;-39
2023/03/30 14:14:57;;;;;;;;;;;16.00;67.10;;;;;;5072065;28;20272;-44
2023/03/30 14:17:23;;;;;;;;;;;16.00;67.30;;;;;;5071759;28;19909;-38
2023/03/30 14:20:01;;;;;;;;;;;16.00;66.10;;;;;;5071998;28;20326;-39
2023/03/30 14:22:27;;;;;;;;;;;16.00;65.30;;;;;;5071746;28;19917;-40
2023/03/30 14:24:56;;;;;;;;;;;16.10;65.60;;;;;;5071688;28;19917;-38
2023/03/30 14:27:21;;;;;;;;;;;16.30;64.50;;;;;;5071614;28;19994;-43
2023/03/30 14:29:49;;;;;;;;;;;16.50;64.00;;;;;;5071747;28;19913;-39